Time;durP1;ratioP1;P1;durP2;ratioP2;P2;SDS_P1;SDS_P2;PMS_P1;PMS_P2;Temp;Humidity;BMP_temperature;BMP_pressure;BME280_temperature;BME280_humidity;BME280_pressure;Samples;Min_cycle;Max_cycle;Signal;HPM_P1;HPM_P2
2021/11/04 00:11:50;;;;;;;;;;;9.60;81.20;;;;;;10;72021056;72023527;-73
2021/11/04 00:23:52;;;;;;;;;;;9.40;78.60;;;;;;10;72021076;72024694;-72
2021/11/04 00:35:54;;;;;;;;;;;9.30;84.10;;;;;;10;72021526;72023964;-73
2021/11/04 00:47:56;;;;;;;;;;;9.10;85.40;;;;;;10;72022250;72025682;-72
2021/11/04 00:59:58;;;;;;;;;;;9.00;86.00;;;;;;10;72021507;72023724;-74
2021/11/04 01:12:00;;;;;;;;;;;8.80;85.70;;;;;;10;72021039;72025014;-73
2021/11/04 01:24:03;;;;;;;;;;;8.80;86.60;;;;;;10;72021447;72024181;-71
2021/11/04 01:36:05;;;;;;;;;;;8.70;85.80;;;;;;10;72022012;72024015;-74
2021/11/04 01:48:06;;;;;;;;;;;8.60;87.00;;;;;;10;72022200;72026994;-75
2021/11/04 02:00:08;;;;;;;;;;;8.50;86.90;;;;;;10;72021870;72023986;-72
2021/11/04 02:12:30;;;;;;;;;;;8.50;87.30;;;;;;10;72021908;72024635;-73
2021/11/04 02:24:38;;;;;;;;;;;8.40;87.30;;;;;;10;72021601;72024495;-72
2021/11/04 02:36:42;;;;;;;;;;;8.40;86.70;;;;;;10;72021777;72023815;-72
2021/11/04 02:48:44;;;;;;;;;;;8.40;86.90;;;;;;10;72021298;72023713;-72
2021/11/04 03:00:53;;;;;;;;;;;8.40;87.50;;;;;;10;72021420;72024916;-71
2021/11/04 03:13:01;;;;;;;;;;;8.20;87.60;;;;;;10;72021774;72024297;-71
2021/11/04 03:25:09;;;;;;;;;;;8.10;87.50;;;;;;10;72021660;72024404;-71
2021/11/04 03:37:14;;;;;;;;;;;8.00;87.50;;;;;;10;72021885;72024574;-73
2021/11/04 03:49:19;;;;;;;;;;;7.90;87.90;;;;;;10;72022170;72024563;-74
2021/11/04 04:01:22;;;;;;;;;;;7.90;88.30;;;;;;10;72021530;72023599;-73
2021/11/04 04:13:26;;;;;;;;;;;7.90;88.50;;;;;;10;72022243;72023834;-71
2021/11/04 04:25:30;;;;;;;;;;;7.70;88.10;;;;;;10;72022198;72024163;-73
2021/11/04 04:37:33;;;;;;;;;;;7.70;88.30;;;;;;10;72022240;72024275;-74
2021/11/04 04:49:35;;;;;;;;;;;7.60;88.50;;;;;;10;72021742;72023902;-73
2021/11/04 05:01:38;;;;;;;;;;;7.50;88.60;;;;;;10;72021812;72024081;-72
2021/11/04 05:13:41;;;;;;;;;;;7.40;88.90;;;;;;10;72022121;72024588;-72
2021/11/04 05:25:44;;;;;;;;;;;7.20;88.40;;;;;;10;72021890;72023707;-73
2021/11/04 05:37:46;;;;;;;;;;;6.90;88.60;;;;;;10;72021893;72023970;-74
2021/11/04 05:49:49;;;;;;;;;;;6.70;89.00;;;;;;10;72021293;72024259;-73
2021/11/04 06:01:53;;;;;;;;;;;6.40;89.40;;;;;;10;72022299;72023790;-71
2021/11/04 06:13:56;;;;;;;;;;;6.40;89.60;;;;;;10;72022252;72023814;-73
2021/11/04 06:26:00;;;;;;;;;;;6.40;90.00;;;;;;10;72020565;72024138;-72
2021/11/04 06:38:02;;;;;;;;;;;6.40;90.00;;;;;;10;72022315;72028900;-72
2021/11/04 06:50:05;;;;;;;;;;;6.40;90.30;;;;;;10;72022659;72024717;-73
2021/11/04 07:02:09;;;;;;;;;;;6.40;90.30;;;;;;10;72022441;72028231;-73
2021/11/04 07:14:12;;;;;;;;;;;6.40;90.30;;;;;;10;72022757;72025014;-65
2021/11/04 07:26:15;;;;;;;;;;;6.60;90.70;;;;;;10;72022895;72026657;-73
2021/11/04 07:38:18;;;;;;;;;;;7.00;90.80;;;;;;10;72023080;72024652;-66
2021/11/04 07:51:35;;;;;;;;;;;7.40;91.10;;;;;;10;72023189;72026801;-65
2021/11/04 08:03:38;;;;;;;;;;;7.90;90.60;;;;;;10;72023013;72029329;-66
2021/11/04 08:15:43;;;;;;;;;;;8.40;90.40;;;;;;10;72022691;72025601;-66
2021/11/04 08:27:45;;;;;;;;;;;9.10;90.00;;;;;;10;72022411;72025514;-70
2021/11/04 08:39:48;;;;;;;;;;;9.50;89.10;;;;;;10;72022525;72027063;-67
2021/11/04 08:51:54;;;;;;;;;;;10.20;88.00;;;;;;10;72022474;72026490;-69
2021/11/04 09:03:57;;;;;;;;;;;10.40;86.50;;;;;;10;72023559;72025374;-66
2021/11/04 09:16:03;;;;;;;;;;;10.70;86.30;;;;;;10;72021804;72026077;-71
2021/11/04 09:28:06;;;;;;;;;;;11.70;85.70;;;;;;10;72023130;72025407;-68
2021/11/04 09:40:09;;;;;;;;;;;13.90;82.70;;;;;;10;72022747;72025666;-74
2021/11/04 09:52:11;;;;;;;;;;;15.30;71.00;;;;;;10;72023740;72027185;-66
2021/11/04 10:04:15;;;;;;;;;;;13.70;78.30;;;;;;10;72023677;72027578;-69
2021/11/04 10:16:17;;;;;;;;;;;17.70;67.80;;;;;;10;72023537;72026547;-66
2021/11/04 10:28:23;;;;;;;;;;;26.90;48.10;;;;;;10;72023017;72025829;-69
2021/11/04 10:40:26;;;;;;;;;;;29.20;43.30;;;;;;10;72023545;72026688;-71
2021/11/04 10:52:32;;;;;;;;;;;31.60;40.10;;;;;;10;72023629;72027526;-72
2021/11/04 11:04:34;;;;;;;;;;;33.10;39.10;;;;;;10;72022128;72026144;-62
2021/11/04 11:16:41;;;;;;;;;;;35.30;38.20;;;;;;10;72023407;72026692;-62
2021/11/04 11:28:44;;;;;;;;;;;37.00;35.30;;;;;;10;72023730;72025646;-72
2021/11/04 11:41:00;;;;;;;;;;;34.20;42.20;;;;;;10;72023524;72027608;-70
2021/11/04 11:53:19;;;;;;;;;;;34.50;41.90;;;;;;10;72023174;72027295;-64
2021/11/04 12:03:37;;;;;;;;;;;35.70;47.20;;;;;;11030376;28;72027019;-74
2021/11/04 12:13:40;;;;;;;;;;;34.30;38.40;;;;;;20892646;28;75797;-73
2021/11/04 12:23:43;;;;;;;;;;;34.40;43.20;;;;;;20891517;27;77119;-71
2021/11/04 12:33:46;;;;;;;;;;;33.30;43.10;;;;;;20892190;28;76173;-69
2021/11/04 12:43:49;;;;;;;;;;;24.20;56.00;;;;;;20895511;27;75760;-69
2021/11/04 12:53:58;;;;;;;;;;;21.80;62.40;;;;;;20892730;27;75988;-68
2021/11/04 13:04:00;;;;;;;;;;;21.20;57.70;;;;;;20892227;27;76700;-70
2021/11/04 13:14:03;;;;;;;;;;;20.70;64.20;;;;;;20902102;27;76793;-64
2021/11/04 13:24:08;;;;;;;;;;;23.80;62.20;;;;;;20905834;27;77204;-64
2021/11/04 13:34:12;;;;;;;;;;;22.40;53.90;;;;;;20902214;27;76427;-66
2021/11/04 13:44:21;;;;;;;;;;;25.80;54.30;;;;;;20901679;27;75947;-67
2021/11/04 13:54:24;;;;;;;;;;;26.20;57.10;;;;;;20899786;27;76466;-65
2021/11/04 14:04:26;;;;;;;;;;;26.10;55.10;;;;;;20852874;27;75577;-67
2021/11/04 14:14:40;;;;;;;;;;;21.10;65.50;;;;;;20831625;28;76337;-66
2021/11/04 14:24:43;;;;;;;;;;;23.10;62.80;;;;;;20847874;27;75665;-68
2021/11/04 14:34:45;;;;;;;;;;;30.60;53.70;;;;;;20904894;27;76724;-69
2021/11/04 14:44:48;;;;;;;;;;;33.30;38.50;;;;;;20906292;27;76190;-68
2021/11/04 14:54:50;;;;;;;;;;;30.20;51.30;;;;;;20902108;28;75646;-67
2021/11/04 15:04:51;;;;;;;;;;;24.30;56.90;;;;;;20902379;28;75385;-70
2021/11/04 15:14:53;;;;;;;;;;;20.60;67.60;;;;;;20904098;28;76450;-69
2021/11/04 15:24:56;;;;;;;;;;;18.60;66.80;;;;;;20902572;28;75887;-76
2021/11/04 15:34:58;;;;;;;;;;;17.80;70.60;;;;;;20902271;27;75662;-71
2021/11/04 15:45:03;;;;;;;;;;;17.20;72.50;;;;;;20906621;27;75703;-76
2021/11/04 15:55:06;;;;;;;;;;;16.30;70.20;;;;;;20896720;27;75967;-70
2021/11/04 16:05:09;;;;;;;;;;;15.60;70.90;;;;;;20892304;27;76804;-70
2021/11/04 16:15:11;;;;;;;;;;;14.90;64.70;;;;;;20821453;28;75697;-69
2021/11/04 16:25:13;;;;;;;;;;;14.40;68.80;;;;;;20832407;28;76876;-71
2021/11/04 16:35:16;;;;;;;;;;;14.00;69.00;;;;;;20903803;27;75823;-68
2021/11/04 16:45:19;;;;;;;;;;;13.70;73.00;;;;;;20910646;27;75405;-67
2021/11/04 16:55:21;;;;;;;;;;;13.50;74.20;;;;;;20911044;28;75033;-68
2021/11/04 17:05:23;;;;;;;;;;;13.20;74.20;;;;;;20885613;27;75778;-68
2021/11/04 17:15:24;;;;;;;;;;;13.00;74.30;;;;;;20832802;28;75851;-66
2021/11/04 17:25:26;;;;;;;;;;;12.90;74.00;;;;;;20832252;28;75759;-73
2021/11/04 17:35:28;;;;;;;;;;;12.60;75.30;;;;;;20854213;27;75761;-76
2021/11/04 17:45:31;;;;;;;;;;;12.40;76.00;;;;;;20884298;27;76772;-75
2021/11/04 17:55:34;;;;;;;;;;;12.30;76.60;;;;;;20830308;28;75957;-75
2021/11/04 18:05:37;;;;;;;;;;;12.00;77.10;;;;;;20830667;28;75687;-72
2021/11/04 18:15:39;;;;;;;;;;;11.80;77.20;;;;;;20840779;27;74964;-76
2021/11/04 18:25:41;;;;;;;;;;;11.60;77.80;;;;;;20857452;27;75060;-76
2021/11/04 18:35:42;;;;;;;;;;;11.40;77.80;;;;;;20889862;27;75896;-75
2021/11/04 18:45:44;;;;;;;;;;;11.30;77.50;;;;;;20898284;28;76486;-63
2021/11/04 18:55:46;;;;;;;;;;;11.20;77.80;;;;;;20899983;27;76216;-65
2021/11/04 19:05:48;;;;;;;;;;;11.10;76.90;;;;;;20897177;27;75665;-67
2021/11/04 19:15:50;;;;;;;;;;;10.90;77.70;;;;;;20902599;28;76804;-68
2021/11/04 19:25:52;;;;;;;;;;;10.80;77.20;;;;;;20904615;28;76774;-62
2021/11/04 19:35:54;;;;;;;;;;;10.70;79.90;;;;;;20901955;28;75516;-68
2021/11/04 19:45:56;;;;;;;;;;;10.90;80.40;;;;;;20900276;27;76043;-73
2021/11/04 19:55:59;;;;;;;;;;;10.80;79.50;;;;;;20900644;27;75687;-69
2021/11/04 20:06:00;;;;;;;;;;;10.60;80.10;;;;;;20893710;27;76020;-71
2021/11/04 20:16:05;;;;;;;;;;;10.80;80.50;;;;;;20901539;28;75710;-73
2021/11/04 20:26:07;;;;;;;;;;;10.50;79.70;;;;;;20904432;28;75858;-70
2021/11/04 20:36:12;;;;;;;;;;;10.30;80.70;;;;;;20851879;27;75666;-73
2021/11/04 20:46:14;;;;;;;;;;;10.30;80.60;;;;;;20855003;27;76225;-70
2021/11/04 20:56:16;;;;;;;;;;;10.50;80.80;;;;;;20820371;28;75798;-70
2021/11/04 21:06:18;;;;;;;;;;;10.30;81.50;;;;;;20879355;28;75026;-70
2021/11/04 21:16:21;;;;;;;;;;;10.10;81.70;;;;;;20904447;27;75859;-71
2021/11/04 21:26:24;;;;;;;;;;;10.00;82.30;;;;;;20881422;27;75282;-72
2021/11/04 21:36:26;;;;;;;;;;;9.70;83.10;;;;;;20910895;27;75505;-73
2021/11/04 21:46:32;;;;;;;;;;;9.50;83.30;;;;;;20890186;28;75572;-72
2021/11/04 21:56:37;;;;;;;;;;;9.40;83.70;;;;;;20843547;27;75565;-72
2021/11/04 22:06:40;;;;;;;;;;;9.40;84.70;;;;;;20892081;28;75985;-72
2021/11/04 22:16:45;;;;;;;;;;;9.20;83.80;;;;;;20915427;27;75999;-73
2021/11/04 22:26:48;;;;;;;;;;;9.10;84.20;;;;;;20896561;28;75468;-73
2021/11/04 22:36:53;;;;;;;;;;;9.10;84.70;;;;;;20912035;27;75695;-74
2021/11/04 22:46:55;;;;;;;;;;;8.90;83.70;;;;;;20911129;28;75695;-72
2021/11/04 22:56:57;;;;;;;;;;;8.80;84.50;;;;;;20910642;28;74876;-72
2021/11/04 23:07:01;;;;;;;;;;;8.60;85.00;;;;;;20865301;27;75720;-73
2021/11/04 23:17:03;;;;;;;;;;;8.50;85.10;;;;;;20898130;28;75772;-71
2021/11/04 23:27:05;;;;;;;;;;;8.40;85.10;;;;;;20826642;28;76728;-72
2021/11/04 23:37:07;;;;;;;;;;;8.30;85.30;;;;;;20826674;28;75392;-71
2021/11/04 23:47:08;;;;;;;;;;;8.20;85.20;;;;;;20825793;28;76824;-70
2021/11/04 23:57:10;;;;;;;;;;;8.10;85.50;;;;;;20824424;28;76532;-71
